createdAt,value
2017-07-27T00:00:50.072Z,11.3
2017-07-27T00:01:57.551Z,11.3
2017-07-27T00:03:05.030Z,11.2
2017-07-27T00:04:11.853Z,11.3
2017-07-27T00:05:19.330Z,11.3
2017-07-27T00:06:26.904Z,11.3
2017-07-27T00:07:34.379Z,11.3
2017-07-27T00:08:41.531Z,11.3
2017-07-27T00:09:49.013Z,11.3
2017-07-27T00:10:56.165Z,11.4
2017-07-27T00:12:03.942Z,11.4
2017-07-27T00:13:11.419Z,11.5
2017-07-27T00:14:18.898Z,11.6
2017-07-27T00:15:26.365Z,11.7
2017-07-27T00:16:33.843Z,11.7
2017-07-27T00:17:41.622Z,11.7
2017-07-27T00:18:49.092Z,11.8
2017-07-27T00:19:56.569Z,11.8
2017-07-27T00:21:04.049Z,11.8
2017-07-27T00:22:11.524Z,11.8
2017-07-27T00:23:19.255Z,11.8
2017-07-27T00:24:26.733Z,11.8
2017-07-27T00:25:34.213Z,11.8
2017-07-27T00:26:41.362Z,11.9
2017-07-27T00:27:48.843Z,11.9
2017-07-27T00:28:56.569Z,11.9
2017-07-27T00:30:04.050Z,11.9
2017-07-27T00:31:11.537Z,11.9
2017-07-27T00:32:19.011Z,11.9
2017-07-27T00:33:26.494Z,11.9
2017-07-27T00:34:34.075Z,11.9
2017-07-27T00:35:41.557Z,12
2017-07-27T00:36:49.034Z,12
2017-07-27T00:37:56.507Z,12
2017-07-27T00:39:03.657Z,12
2017-07-27T00:40:11.231Z,12
2017-07-27T00:41:18.708Z,12
2017-07-27T00:42:26.187Z,12.1
2017-07-27T00:43:33.664Z,12.1
2017-07-27T00:44:41.138Z,12.1
2017-07-27T00:45:48.916Z,12.1
2017-07-27T00:46:56.391Z,12.1
2017-07-27T00:48:03.870Z,12.1
2017-07-27T00:49:11.018Z,12.1
2017-07-27T00:50:18.492Z,12.2
2017-07-27T00:51:26.452Z,12.2
2017-07-27T00:52:33.938Z,12.3
2017-07-27T00:53:41.426Z,12.2
2017-07-27T00:54:48.574Z,12.3
2017-07-27T00:55:56.052Z,12.3
2017-07-27T00:57:03.777Z,12.3
2017-07-27T00:58:11.255Z,12.3
2017-07-27T00:59:18.734Z,12.3
2017-07-27T01:00:26.211Z,12.4
2017-07-27T01:01:33.687Z,12.4
2017-07-27T01:02:41.415Z,12.4
2017-07-27T01:03:48.892Z,12.4
2017-07-27T01:04:56.370Z,12.4
2017-07-27T01:06:03.866Z,12.5
2017-07-27T01:07:11.332Z,12.5
2017-07-27T01:08:19.060Z,12.5
2017-07-27T01:09:26.535Z,12.5
2017-07-27T01:10:34.007Z,12.5
2017-07-27T01:11:41.489Z,12.6
2017-07-27T01:12:48.631Z,12.6
2017-07-27T01:13:56.355Z,12.6
2017-07-27T01:15:03.834Z,12.6
2017-07-27T01:16:11.311Z,12.6
2017-07-27T01:17:18.456Z,12.6
2017-07-27T01:18:25.933Z,12.6
2017-07-27T01:19:33.661Z,12.6
2017-07-27T01:20:41.150Z,12.6
2017-07-27T01:21:48.626Z,12.6
2017-07-27T01:22:56.109Z,12.6
2017-07-27T01:24:02.926Z,12.6
2017-07-27T01:25:10.653Z,12.6
2017-07-27T01:26:18.136Z,12.6
2017-07-27T01:27:25.616Z,12.6
2017-07-27T01:28:32.764Z,12.6
2017-07-27T01:29:40.238Z,12.6
2017-07-27T01:30:48.018Z,12.6
2017-07-27T01:31:55.502Z,12.6
2017-07-27T01:33:02.655Z,12.5
2017-07-27T01:34:10.133Z,12.5
2017-07-27T01:35:17.607Z,12.5
2017-07-27T01:36:25.337Z,12.5
2017-07-27T01:37:32.813Z,12.5
2017-07-27T01:38:40.289Z,12.5
2017-07-27T01:39:47.760Z,12.5
2017-07-27T01:40:55.236Z,12.5
2017-07-27T01:42:02.816Z,12.5
2017-07-27T01:43:09.963Z,12.5
2017-07-27T01:44:17.469Z,12.5
2017-07-27T01:45:24.957Z,12.5
2017-07-27T01:46:32.432Z,12.5
2017-07-27T01:47:40.046Z,12.5
2017-07-27T01:48:47.521Z,12.5
2017-07-27T01:49:54.996Z,12.5
2017-07-27T01:51:02.476Z,12.6
2017-07-27T01:52:09.961Z,12.6
2017-07-27T01:53:17.738Z,12.6
2017-07-27T01:54:25.234Z,12.6
2017-07-27T01:55:32.701Z,12.6
2017-07-27T01:56:40.186Z,12.6
2017-07-27T01:57:47.665Z,12.6
2017-07-27T01:58:55.451Z,12.6
2017-07-27T02:00:02.921Z,12.6
2017-07-27T02:01:10.389Z,12.6
2017-07-27T02:02:17.874Z,12.6
2017-07-27T02:03:25.359Z,12.6
2017-07-27T02:04:33.089Z,12.7
2017-07-27T02:05:40.571Z,12.6
2017-07-27T02:06:47.723Z,12.6
2017-07-27T02:07:55.201Z,12.6
2017-07-27T02:09:02.689Z,12.6
2017-07-27T02:10:10.420Z,12.7
2017-07-27T02:11:17.902Z,12.7
2017-07-27T02:12:25.378Z,12.6
2017-07-27T02:13:32.850Z,12.6
2017-07-27T02:14:40.319Z,12.6
2017-07-27T02:15:48.103Z,12.7
2017-07-27T02:16:55.579Z,12.6
2017-07-27T02:18:03.051Z,12.6
2017-07-27T02:19:10.533Z,12.6
2017-07-27T02:20:18.008Z,12.6
2017-07-27T02:21:25.734Z,12.6
2017-07-27T02:22:33.222Z,12.6
2017-07-27T02:23:40.691Z,12.7
2017-07-27T02:24:48.180Z,12.7
2017-07-27T02:25:55.660Z,12.6
2017-07-27T02:27:03.397Z,12.6
2017-07-27T02:28:10.869Z,12.6
2017-07-27T02:29:18.016Z,12.6
2017-07-27T02:30:25.516Z,12.6
2017-07-27T02:31:32.991Z,12.6
2017-07-27T02:32:40.708Z,12.6
2017-07-27T02:33:48.204Z,12.6
2017-07-27T02:34:55.363Z,12.6
2017-07-27T02:36:02.846Z,12.6
2017-07-27T02:37:10.317Z,12.6
2017-07-27T02:38:17.769Z,12.6
2017-07-27T02:39:24.913Z,12.6
2017-07-27T02:40:32.390Z,12.6
2017-07-27T02:41:39.867Z,12.6
2017-07-27T02:42:47.351Z,12.6
2017-07-27T02:43:54.925Z,12.6
2017-07-27T02:45:02.408Z,12.6
2017-07-27T02:46:09.876Z,12.6
2017-07-27T02:47:17.384Z,12.6
2017-07-27T02:48:24.858Z,12.6
2017-07-27T02:49:32.586Z,12.6
2017-07-27T02:50:40.060Z,12.6
2017-07-27T02:51:47.541Z,12.6
2017-07-27T02:52:55.016Z,12.6
2017-07-27T02:54:02.498Z,12.6
2017-07-27T02:55:10.277Z,12.6
2017-07-27T02:56:17.754Z,12.6
2017-07-27T02:57:25.230Z,12.6
2017-07-27T02:58:32.705Z,12.6
2017-07-27T02:59:40.180Z,12.5
2017-07-27T03:00:47.959Z,12.5
2017-07-27T03:01:55.118Z,12.6
2017-07-27T03:03:02.596Z,12.6
2017-07-27T03:04:10.076Z,12.6
2017-07-27T03:05:17.218Z,12.6
2017-07-27T03:06:24.997Z,12.6
2017-07-27T03:07:32.480Z,12.6
2017-07-27T03:08:39.627Z,12.6
2017-07-27T03:09:46.772Z,12.6
2017-07-27T03:10:54.250Z,12.6
2017-07-27T03:12:02.029Z,12.7
2017-07-27T03:13:09.509Z,12.7
2017-07-27T03:14:16.985Z,12.6
2017-07-27T03:15:24.466Z,12.7
2017-07-27T03:16:31.616Z,12.7
2017-07-27T03:17:38.874Z,12.6
2017-07-27T03:18:46.356Z,12.7
2017-07-27T03:19:53.503Z,12.7
2017-07-27T03:21:00.977Z,12.7
2017-07-27T03:22:08.453Z,12.7
2017-07-27T03:23:16.230Z,12.7
2017-07-27T03:24:23.381Z,12.7
2017-07-27T03:25:30.867Z,12.7
2017-07-27T03:26:38.336Z,12.7
2017-07-27T03:27:45.818Z,12.7
2017-07-27T03:28:53.548Z,12.7
2017-07-27T03:30:01.020Z,12.7
2017-07-27T03:31:08.174Z,12.8
2017-07-27T03:32:15.646Z,12.8
2017-07-27T03:33:22.787Z,12.8
2017-07-27T03:34:30.513Z,12.8
2017-07-27T03:35:37.995Z,12.8
2017-07-27T03:36:45.470Z,12.7
2017-07-27T03:37:52.944Z,12.8
2017-07-27T03:39:00.431Z,12.8
2017-07-27T03:40:08.007Z,12.8
2017-07-27T03:41:15.479Z,12.8
2017-07-27T03:42:22.953Z,12.8
2017-07-27T03:43:30.430Z,12.8
2017-07-27T03:44:37.911Z,12.8
2017-07-27T03:45:45.632Z,12.8
2017-07-27T03:46:53.116Z,12.8
2017-07-27T03:48:00.592Z,12.8
2017-07-27T03:49:08.073Z,12.8
2017-07-27T03:50:15.546Z,12.8
2017-07-27T03:51:23.020Z,12.9
2017-07-27T03:52:30.522Z,12.9
2017-07-27T03:53:37.995Z,12.9
2017-07-27T03:54:45.479Z,12.9
2017-07-27T03:55:52.952Z,12.9
2017-07-27T03:57:00.401Z,12.9
2017-07-27T03:58:07.875Z,12.9
2017-07-27T03:59:15.358Z,12.9
2017-07-27T04:00:22.834Z,12.9
2017-07-27T04:01:30.919Z,12.9
2017-07-27T04:02:38.657Z,12.9
2017-07-27T04:03:46.139Z,12.9
2017-07-27T04:04:53.287Z,12.9
2017-07-27T04:06:00.435Z,13
2017-07-27T04:07:07.912Z,13
2017-07-27T04:08:15.644Z,12.9
2017-07-27T04:09:23.123Z,12.9
2017-07-27T04:10:30.598Z,12.9
2017-07-27T04:11:38.085Z,12.9
2017-07-27T04:12:45.565Z,12.9
2017-07-27T04:13:53.284Z,12.9
2017-07-27T04:15:00.766Z,12.9
2017-07-27T04:16:08.238Z,12.9
2017-07-27T04:17:15.718Z,12.9
2017-07-27T04:18:23.196Z,12.9
2017-07-27T04:19:30.971Z,12.9
2017-07-27T04:20:38.449Z,13
2017-07-27T04:21:45.919Z,13
2017-07-27T04:22:53.392Z,13
2017-07-27T04:24:00.872Z,13
2017-07-27T04:25:08.448Z,13
2017-07-27T04:26:15.921Z,13
2017-07-27T04:27:23.396Z,13
2017-07-27T04:28:30.543Z,13
2017-07-27T04:29:38.023Z,13
2017-07-27T04:30:45.501Z,13
2017-07-27T04:31:52.980Z,13
2017-07-27T04:33:00.457Z,13
2017-07-27T04:34:07.929Z,13
2017-07-27T04:35:15.406Z,13
2017-07-27T04:36:23.135Z,13
2017-07-27T04:37:30.613Z,13
2017-07-27T04:38:37.755Z,13
2017-07-27T04:39:45.228Z,13
2017-07-27T04:40:52.704Z,13
2017-07-27T04:42:00.453Z,13.1
2017-07-27T04:43:07.933Z,13
2017-07-27T04:44:15.408Z,13
2017-07-27T04:45:22.882Z,13
2017-07-27T04:46:30.032Z,13
2017-07-27T04:47:37.760Z,13
2017-07-27T04:48:45.234Z,13.1
2017-07-27T04:49:52.708Z,13
2017-07-27T04:50:59.853Z,13.1
2017-07-27T04:52:07.332Z,13.1
2017-07-27T04:53:14.483Z,13.1
2017-07-27T04:54:21.953Z,13.1
2017-07-27T04:55:29.429Z,13.2
2017-07-27T04:56:36.910Z,13.2
2017-07-27T04:57:44.304Z,13.2
2017-07-27T04:58:51.781Z,13.2
2017-07-27T04:59:59.285Z,13.2
2017-07-27T05:01:06.764Z,13.2
2017-07-27T05:02:14.255Z,13.2
2017-07-27T05:03:21.977Z,13.2
2017-07-27T05:04:29.456Z,13.2
2017-07-27T05:05:36.941Z,13.2
2017-07-27T05:06:44.413Z,13.2
2017-07-27T05:07:51.898Z,13.1
2017-07-27T05:08:59.618Z,13.2
2017-07-27T05:10:07.117Z,13.2
2017-07-27T05:11:14.268Z,13.2
2017-07-27T05:12:21.748Z,13.2
2017-07-27T05:13:28.890Z,13.2
2017-07-27T05:14:36.613Z,13.3
2017-07-27T05:15:43.767Z,13.3
2017-07-27T05:16:51.244Z,13.3
2017-07-27T05:17:58.726Z,13.3
2017-07-27T05:19:06.202Z,13.3
2017-07-27T05:20:13.280Z,13.3
2017-07-27T05:21:20.764Z,13.4
2017-07-27T05:22:28.239Z,13.4
2017-07-27T05:23:35.718Z,13.4
2017-07-27T05:24:43.190Z,13.4
2017-07-27T05:25:50.968Z,13.4
2017-07-27T05:26:58.124Z,13.4
2017-07-27T05:28:05.271Z,13.4
2017-07-27T05:29:12.422Z,13.4
2017-07-27T05:30:19.902Z,13.4
2017-07-27T05:31:27.628Z,13.5
2017-07-27T05:32:35.110Z,13.5
2017-07-27T05:33:42.587Z,13.5
2017-07-27T05:34:49.739Z,13.6
2017-07-27T05:35:57.222Z,13.6
2017-07-27T05:37:04.997Z,13.6
2017-07-27T05:38:12.479Z,13.6
2017-07-27T05:39:19.959Z,13.6
2017-07-27T05:40:27.436Z,13.7
2017-07-27T05:41:34.919Z,13.7
2017-07-27T05:42:42.063Z,13.8
2017-07-27T05:43:49.235Z,13.8
2017-07-27T05:44:56.385Z,13.8
2017-07-27T05:46:03.866Z,13.8
2017-07-27T05:47:11.590Z,13.8
2017-07-27T05:48:19.068Z,13.8
2017-07-27T05:49:26.219Z,13.7
2017-07-27T05:50:33.372Z,13.7
2017-07-27T05:51:40.519Z,13.7
2017-07-27T05:52:48.012Z,13.7
2017-07-27T05:53:55.164Z,13.7
2017-07-27T05:55:02.638Z,13.7
2017-07-27T05:56:10.115Z,13.7
2017-07-27T05:57:16.930Z,13.8
2017-07-27T05:58:24.753Z,13.8
2017-07-27T05:59:32.234Z,13.8
2017-07-27T06:00:39.387Z,13.8
2017-07-27T06:01:46.859Z,13.8
2017-07-27T06:02:54.331Z,13.8
2017-07-27T06:04:02.118Z,13.8
2017-07-27T06:05:09.600Z,13.8
2017-07-27T06:06:16.748Z,13.8
2017-07-27T06:07:24.232Z,13.8
2017-07-27T06:08:31.705Z,13.8
2017-07-27T06:09:39.492Z,13.8
2017-07-27T06:10:46.973Z,13.8
2017-07-27T06:11:54.117Z,13.8
2017-07-27T06:13:01.597Z,13.9
2017-07-27T06:14:09.072Z,13.8
2017-07-27T06:15:16.805Z,13.8
2017-07-27T06:16:24.286Z,13.8
2017-07-27T06:17:31.763Z,13.9
2017-07-27T06:18:39.252Z,13.9
2017-07-27T06:19:46.727Z,13.9
2017-07-27T06:20:54.451Z,13.9
2017-07-27T06:22:01.604Z,13.8
2017-07-27T06:23:09.098Z,13.8
2017-07-27T06:24:16.241Z,13.8
2017-07-27T06:25:23.721Z,13.8
2017-07-27T06:26:30.867Z,13.8
2017-07-27T06:27:38.347Z,13.9
2017-07-27T06:28:45.830Z,13.9
2017-07-27T06:29:53.307Z,14
2017-07-27T06:31:00.132Z,14
2017-07-27T06:32:07.863Z,14
2017-07-27T06:33:15.340Z,14
2017-07-27T06:34:22.816Z,14
2017-07-27T06:35:30.329Z,14.1
2017-07-27T06:36:37.812Z,14.1
2017-07-27T06:37:45.260Z,14.1
2017-07-27T06:38:52.745Z,14.1
2017-07-27T06:40:00.220Z,14.1
2017-07-27T06:41:07.695Z,14.1
2017-07-27T06:42:15.170Z,14.1
2017-07-27T06:43:23.002Z,14.1
2017-07-27T06:44:30.486Z,14.2
2017-07-27T06:45:37.965Z,14.2
2017-07-27T06:46:45.440Z,14.2
2017-07-27T06:47:52.918Z,14.2
2017-07-27T06:49:00.750Z,14.2
2017-07-27T06:50:08.229Z,14.2
2017-07-27T06:51:15.385Z,14.2
2017-07-27T06:52:22.867Z,14.2
2017-07-27T06:53:30.348Z,14.2
2017-07-27T06:54:38.179Z,14.2
2017-07-27T06:55:45.657Z,14.2
2017-07-27T06:56:53.138Z,14.2
2017-07-27T06:58:00.621Z,14.2
2017-07-27T06:59:07.772Z,14.2
2017-07-27T07:00:15.598Z,14.2
2017-07-27T07:01:23.079Z,14.3
2017-07-27T07:02:30.226Z,14.3
2017-07-27T07:03:37.699Z,14.3
2017-07-27T07:04:44.846Z,14.3
2017-07-27T07:05:52.247Z,14.3
2017-07-27T07:06:59.394Z,14.4
2017-07-27T07:08:06.543Z,14.4
2017-07-27T07:09:13.364Z,14.4
2017-07-27T07:10:20.510Z,14.4
2017-07-27T07:11:28.293Z,14.4
2017-07-27T07:12:35.765Z,14.5
2017-07-27T07:13:43.239Z,14.5
2017-07-27T07:14:50.717Z,14.5
2017-07-27T07:15:58.195Z,14.6
2017-07-27T07:17:05.983Z,14.6
2017-07-27T07:18:13.531Z,14.6
2017-07-27T07:19:21.011Z,14.6
2017-07-27T07:20:28.526Z,14.6
2017-07-27T07:21:36.025Z,14.7
2017-07-27T07:22:43.511Z,14.7
2017-07-27T07:23:51.241Z,14.7
2017-07-27T07:24:58.713Z,14.7
2017-07-27T07:26:05.863Z,14.7
2017-07-27T07:27:13.338Z,14.7
2017-07-27T07:28:20.818Z,14.7
2017-07-27T07:29:28.602Z,14.8
2017-07-27T07:30:36.078Z,14.8
2017-07-27T07:31:43.559Z,14.8
2017-07-27T07:32:51.043Z,14.8
2017-07-27T07:33:58.530Z,14.8
2017-07-27T07:35:06.361Z,14.8
2017-07-27T07:36:13.837Z,14.8
2017-07-27T07:37:21.318Z,14.9
2017-07-27T07:38:28.796Z,14.9
2017-07-27T07:39:36.289Z,15
2017-07-27T07:40:44.126Z,15
2017-07-27T07:41:51.303Z,15.1
2017-07-27T07:42:58.779Z,15.1
2017-07-27T07:44:06.263Z,15.1
2017-07-27T07:45:13.416Z,15.2
2017-07-27T07:46:21.242Z,15.2
2017-07-27T07:47:28.717Z,15.2
2017-07-27T07:48:36.194Z,15.3
2017-07-27T07:49:43.671Z,15.3
2017-07-27T07:50:50.823Z,15.3
2017-07-27T07:51:58.676Z,15.3
2017-07-27T07:53:06.145Z,15.4
2017-07-27T07:54:13.618Z,15.4
2017-07-27T07:55:20.846Z,15.5
2017-07-27T07:56:28.330Z,15.5
2017-07-27T07:57:35.911Z,15.4
2017-07-27T07:58:43.398Z,15.5
2017-07-27T07:59:50.880Z,15.4
2017-07-27T08:00:58.357Z,15.4
2017-07-27T08:02:05.838Z,15.4
2017-07-27T08:03:12.912Z,15.5
2017-07-27T08:04:20.388Z,15.5
2017-07-27T08:05:27.558Z,15.5
2017-07-27T08:06:35.035Z,15.5
2017-07-27T08:07:42.515Z,15.5
2017-07-27T08:08:50.093Z,15.5
2017-07-27T08:09:57.242Z,15.5
2017-07-27T08:11:04.720Z,15.4
2017-07-27T08:12:12.198Z,15.4
2017-07-27T08:13:19.675Z,15.5
2017-07-27T08:14:27.459Z,15.5
2017-07-27T08:15:34.944Z,15.6
2017-07-27T08:16:42.434Z,15.6
2017-07-27T08:17:49.917Z,15.6
2017-07-27T08:18:57.393Z,15.7
2017-07-27T08:20:05.220Z,15.7
2017-07-27T08:21:12.698Z,15.8
2017-07-27T08:22:20.179Z,15.8
2017-07-27T08:23:27.338Z,15.8
2017-07-27T08:24:34.816Z,15.8
2017-07-27T08:25:42.080Z,15.8
2017-07-27T08:26:49.231Z,15.9
2017-07-27T08:27:56.710Z,15.9
2017-07-27T08:29:04.192Z,15.9
2017-07-27T08:30:11.348Z,15.9
2017-07-27T08:31:18.930Z,16
2017-07-27T08:32:26.071Z,15.9
2017-07-27T08:33:33.551Z,15.9
2017-07-27T08:34:41.030Z,16
2017-07-27T08:35:48.509Z,16.1
2017-07-27T08:36:56.356Z,16.2
2017-07-27T08:38:04.053Z,16.3
2017-07-27T08:39:11.552Z,16.3
2017-07-27T08:40:19.069Z,16.4
2017-07-27T08:41:26.549Z,16.5
2017-07-27T08:42:34.378Z,16.5
2017-07-27T08:43:41.860Z,16.6
2017-07-27T08:44:49.017Z,16.7
2017-07-27T08:45:56.521Z,16.7
2017-07-27T08:47:04.001Z,16.7
2017-07-27T08:48:11.477Z,16.7
2017-07-27T08:49:18.980Z,16.7
2017-07-27T08:50:26.760Z,16.8
2017-07-27T08:51:34.239Z,16.8
2017-07-27T08:52:41.722Z,16.9
2017-07-27T08:53:49.447Z,16.9
2017-07-27T08:54:56.609Z,16.9
2017-07-27T08:56:04.426Z,17
2017-07-27T08:57:11.910Z,17.1
2017-07-27T08:58:19.384Z,17.2
2017-07-27T08:59:26.862Z,17.2
2017-07-27T09:00:34.343Z,17.3
2017-07-27T09:01:42.177Z,17.2
2017-07-27T09:02:49.660Z,17.2
2017-07-27T09:03:57.149Z,17.3
2017-07-27T09:05:04.626Z,17.4
2017-07-27T09:06:12.108Z,17.4
2017-07-27T09:07:19.941Z,17.5
2017-07-27T09:08:27.417Z,17.5
2017-07-27T09:09:34.892Z,17.5
2017-07-27T09:10:42.047Z,17.4
2017-07-27T09:11:49.525Z,17.4
2017-07-27T09:12:57.351Z,17.4
2017-07-27T09:14:04.837Z,17.4
2017-07-27T09:15:12.319Z,17.4
2017-07-27T09:16:19.811Z,17.5
2017-07-27T09:17:27.285Z,17.6
2017-07-27T09:18:35.117Z,17.5
2017-07-27T09:19:42.594Z,17.6
2017-07-27T09:20:50.081Z,17.6
2017-07-27T09:21:57.556Z,17.6
2017-07-27T09:23:05.036Z,17.7
2017-07-27T09:24:12.763Z,17.8
2017-07-27T09:25:19.913Z,17.8
2017-07-27T09:26:27.408Z,17.9
2017-07-27T09:27:34.885Z,18
2017-07-27T09:28:42.365Z,18
2017-07-27T09:29:50.145Z,18
2017-07-27T09:30:57.628Z,18
2017-07-27T09:32:05.114Z,18.1
2017-07-27T09:33:12.597Z,18.2
2017-07-27T09:34:20.075Z,18.3
2017-07-27T09:35:27.902Z,18.4
2017-07-27T09:36:35.379Z,18.5
2017-07-27T09:37:42.872Z,18.6
2017-07-27T09:38:50.350Z,18.8
2017-07-27T09:39:57.831Z,19
2017-07-27T09:41:05.328Z,19
2017-07-27T09:42:12.808Z,19
2017-07-27T09:43:20.298Z,19
2017-07-27T09:44:27.781Z,19
2017-07-27T09:45:35.282Z,18.9
2017-07-27T09:46:42.768Z,18.8
2017-07-27T09:47:49.931Z,18.9
2017-07-27T09:48:57.412Z,18.9
2017-07-27T09:50:04.569Z,18.9
2017-07-27T09:51:12.054Z,18.9
2017-07-27T09:52:19.624Z,18.9
2017-07-27T09:53:27.101Z,18.9
2017-07-27T09:54:34.587Z,18.9
2017-07-27T09:55:42.070Z,19
2017-07-27T09:56:48.913Z,19.1
2017-07-27T09:57:56.497Z,19.1
2017-07-27T09:59:03.986Z,19.1
2017-07-27T10:00:11.486Z,19
2017-07-27T10:01:18.967Z,19
2017-07-27T10:02:26.443Z,18.9
2017-07-27T10:03:33.949Z,18.9
2017-07-27T10:04:41.428Z,18.9
2017-07-27T10:05:48.913Z,18.8
2017-07-27T10:06:56.389Z,18.8
2017-07-27T10:08:03.541Z,18.7
2017-07-27T10:09:11.117Z,18.8
2017-07-27T10:10:18.595Z,18.8
2017-07-27T10:11:25.748Z,18.7
2017-07-27T10:12:33.239Z,18.7
2017-07-27T10:13:40.724Z,18.6
2017-07-27T10:14:48.180Z,18.5
2017-07-27T10:15:55.659Z,18.5
2017-07-27T10:17:03.159Z,18.5
2017-07-27T10:18:10.635Z,18.5
2017-07-27T10:19:18.118Z,18.5
2017-07-27T10:20:25.630Z,18.5
2017-07-27T10:21:33.111Z,18.5
2017-07-27T10:22:40.594Z,18.5
2017-07-27T10:23:48.089Z,18.5
2017-07-27T10:24:55.568Z,18.5
2017-07-27T10:26:03.398Z,18.6
2017-07-27T10:27:10.878Z,18.6
2017-07-27T10:28:18.358Z,18.7
2017-07-27T10:29:25.835Z,18.7
2017-07-27T10:30:33.317Z,18.7
2017-07-27T10:31:41.155Z,18.6
2017-07-27T10:32:48.302Z,18.7
2017-07-27T10:33:55.781Z,18.7
2017-07-27T10:35:03.257Z,18.8
2017-07-27T10:36:10.734Z,18.8
2017-07-27T10:37:18.562Z,18.9
2017-07-27T10:38:26.041Z,18.8
2017-07-27T10:39:33.520Z,18.8
2017-07-27T10:40:41.005Z,18.9
2017-07-27T10:41:48.484Z,19
2017-07-27T10:42:55.966Z,19.1
2017-07-27T10:44:03.696Z,19.2
2017-07-27T10:45:11.182Z,19.3
2017-07-27T10:46:18.662Z,19.4
2017-07-27T10:47:26.146Z,19.3
2017-07-27T10:48:33.638Z,19.4
2017-07-27T10:49:41.112Z,19.4
2017-07-27T10:50:48.589Z,19.5
2017-07-27T10:51:56.072Z,19.5
2017-07-27T10:53:03.552Z,19.6
2017-07-27T10:54:11.029Z,19.7
2017-07-27T10:55:18.504Z,19.7
2017-07-27T10:56:26.004Z,19.7
2017-07-27T10:57:33.484Z,19.6
2017-07-27T10:58:40.970Z,19.6
2017-07-27T10:59:48.460Z,19.7
2017-07-27T11:00:56.242Z,19.8
2017-07-27T11:02:03.726Z,19.8
2017-07-27T11:03:11.210Z,19.7
2017-07-27T11:04:18.694Z,19.9
2017-07-27T11:05:26.178Z,19.9
2017-07-27T11:06:34.012Z,20
2017-07-27T11:07:41.519Z,20.2
2017-07-27T11:08:49.007Z,20.3
2017-07-27T11:09:56.489Z,20.4
2017-07-27T11:11:03.974Z,20.4
2017-07-27T11:12:11.806Z,20.3
2017-07-27T11:13:19.291Z,20.2
2017-07-27T11:14:26.776Z,20.3
2017-07-27T11:15:34.257Z,20.2
2017-07-27T11:16:41.742Z,20.3
2017-07-27T11:17:49.583Z,20.3
2017-07-27T11:18:57.070Z,20.2
2017-07-27T11:20:04.548Z,20.1
2017-07-27T11:21:12.038Z,20.1
2017-07-27T11:22:19.527Z,20.1
2017-07-27T11:23:27.370Z,20
2017-07-27T11:24:34.846Z,19.9
2017-07-27T11:25:41.996Z,19.9
2017-07-27T11:26:49.481Z,19.9
2017-07-27T11:27:56.959Z,20
2017-07-27T11:29:04.784Z,19.9
2017-07-27T11:30:12.266Z,19.9
2017-07-27T11:31:19.748Z,19.9
2017-07-27T11:32:27.229Z,19.9
2017-07-27T11:33:34.716Z,19.8
2017-07-27T11:34:42.202Z,19.8
2017-07-27T11:35:49.685Z,19.8
2017-07-27T11:36:57.198Z,19.8
2017-07-27T11:38:05.033Z,19.9
2017-07-27T11:39:12.519Z,20
2017-07-27T11:40:20.004Z,20
2017-07-27T11:41:27.485Z,20
2017-07-27T11:42:34.974Z,20.1
2017-07-27T11:43:42.461Z,20.2
2017-07-27T11:44:50.193Z,20.2
2017-07-27T11:45:57.677Z,20.1
2017-07-27T11:47:05.161Z,20.1
2017-07-27T11:48:12.637Z,20.2
2017-07-27T11:49:20.121Z,20.3
2017-07-27T11:50:27.898Z,20.3
2017-07-27T11:51:35.056Z,20.5
2017-07-27T11:52:42.548Z,20.5
2017-07-27T11:53:50.033Z,20.6
2017-07-27T11:54:57.517Z,20.7
2017-07-27T11:56:04.667Z,20.8
2017-07-27T11:57:12.255Z,20.8
2017-07-27T11:58:19.745Z,20.9
2017-07-27T11:59:27.226Z,21
2017-07-27T12:00:34.705Z,21
2017-07-27T12:01:41.877Z,21
2017-07-27T12:02:49.657Z,21
2017-07-27T12:03:56.807Z,21
2017-07-27T12:05:04.295Z,21
2017-07-27T12:06:11.777Z,21.1
2017-07-27T12:07:19.256Z,21.2
2017-07-27T12:08:26.847Z,21.1
2017-07-27T12:09:34.335Z,21.1
2017-07-27T12:10:41.823Z,21.2
2017-07-27T12:11:49.310Z,21.4
2017-07-27T12:12:56.467Z,21.6
2017-07-27T12:14:03.721Z,21.6
2017-07-27T12:15:11.212Z,21.6
2017-07-27T12:16:18.691Z,21.7
2017-07-27T12:17:26.174Z,21.9
2017-07-27T12:18:33.325Z,22.1
2017-07-27T12:19:41.058Z,22.3
2017-07-27T12:20:48.544Z,22.5
2017-07-27T12:21:55.692Z,22.6
2017-07-27T12:23:02.834Z,22.7
2017-07-27T12:24:10.320Z,23
2017-07-27T12:25:17.908Z,23
2017-07-27T12:26:25.391Z,22.9
2017-07-27T12:27:32.871Z,22.7
2017-07-27T12:28:40.360Z,22.7
2017-07-27T12:29:47.841Z,22.9
2017-07-27T12:30:55.575Z,23.2
2017-07-27T12:32:03.070Z,23.3
2017-07-27T12:33:10.556Z,23.2
2017-07-27T12:34:18.033Z,23.2
2017-07-27T12:35:25.514Z,23.4
2017-07-27T12:36:33.349Z,23.5
2017-07-27T12:37:55.443Z,23.4
2017-07-27T12:39:02.936Z,23.5
2017-07-27T12:40:10.085Z,23.7
2017-07-27T12:41:17.572Z,23.8
2017-07-27T12:42:25.414Z,23.9
2017-07-27T12:43:32.896Z,24.2
2017-07-27T12:44:40.380Z,24.4
2017-07-27T12:45:47.864Z,24.4
2017-07-27T12:46:55.346Z,24.3
2017-07-27T12:48:03.134Z,24.1
2017-07-27T12:49:10.283Z,23.9
2017-07-27T12:50:17.772Z,23.8
2017-07-27T12:51:25.254Z,23.6
2017-07-27T12:52:32.748Z,23.5
2017-07-27T12:53:40.542Z,23.3
2017-07-27T12:54:47.712Z,23.5
2017-07-27T12:55:55.201Z,23.7
2017-07-27T12:57:02.686Z,23.9
2017-07-27T12:58:09.845Z,24.1
2017-07-27T12:59:17.945Z,24.5
2017-07-27T13:00:25.429Z,25
2017-07-27T13:01:32.920Z,25.2
2017-07-27T13:02:40.414Z,25.3
2017-07-27T13:03:47.910Z,25.2
2017-07-27T13:04:55.746Z,25.1
2017-07-27T13:06:03.242Z,24.7
2017-07-27T13:07:10.732Z,24.5
2017-07-27T13:08:18.218Z,24.5
2017-07-27T13:09:25.705Z,24.6
2017-07-27T13:10:33.491Z,24.6
2017-07-27T13:11:40.652Z,24.7
2017-07-27T13:12:48.142Z,24.9
2017-07-27T13:13:55.634Z,24.8
2017-07-27T13:15:03.128Z,24.8
2017-07-27T13:16:10.965Z,25
2017-07-27T13:17:18.466Z,25.4
2017-07-27T13:18:25.951Z,25.6
2017-07-27T13:19:33.103Z,25.7
2017-07-27T13:20:40.247Z,25.7
2017-07-27T13:21:48.085Z,25.9
2017-07-27T13:22:55.567Z,26.2
2017-07-27T13:24:03.052Z,26.2
2017-07-27T13:25:10.546Z,26.2
2017-07-27T13:26:18.028Z,25.6
2017-07-27T13:27:25.780Z,25.2
2017-07-27T13:28:33.274Z,24.8
2017-07-27T13:29:40.760Z,24.6
2017-07-27T13:30:48.256Z,24.5
2017-07-27T13:31:55.733Z,24.8
2017-07-27T13:33:03.221Z,25
2017-07-27T13:34:10.375Z,25.3
2017-07-27T13:35:17.868Z,25.5
2017-07-27T13:36:25.017Z,25.5
2017-07-27T13:37:32.178Z,25.4
2017-07-27T13:38:39.690Z,25.4
2017-07-27T13:39:47.174Z,25.4
2017-07-27T13:40:54.658Z,25.2
2017-07-27T13:42:01.813Z,24.9
2017-07-27T13:43:09.296Z,24.8
2017-07-27T13:44:16.788Z,24.9
2017-07-27T13:45:24.539Z,25
2017-07-27T13:46:32.062Z,25.1
2017-07-27T13:47:39.573Z,25
2017-07-27T13:48:47.063Z,24.9
2017-07-27T13:49:54.554Z,24.9
2017-07-27T13:51:01.630Z,24.8
2017-07-27T13:52:09.113Z,24.8
2017-07-27T13:53:16.603Z,24.9
2017-07-27T13:54:23.764Z,25
2017-07-27T13:55:31.256Z,25
2017-07-27T13:56:38.996Z,24.7
2017-07-27T13:57:46.490Z,24.4
2017-07-27T13:58:53.973Z,24.4
2017-07-27T14:00:01.465Z,24.4
2017-07-27T14:01:08.634Z,24.5
2017-07-27T14:02:16.435Z,24.6
2017-07-27T14:03:23.594Z,25
2017-07-27T14:04:31.080Z,25.3
2017-07-27T14:05:38.577Z,25.7
2017-07-27T14:06:46.067Z,25.3
2017-07-27T14:07:53.577Z,25
2017-07-27T14:09:01.058Z,25
2017-07-27T14:10:08.214Z,24.8
2017-07-27T14:11:15.719Z,24.7
2017-07-27T14:12:23.216Z,24.6
2017-07-27T14:13:31.058Z,24.5
2017-07-27T14:14:53.143Z,24.5
2017-07-27T14:16:00.623Z,24.4
2017-07-27T14:17:08.113Z,24.5
2017-07-27T14:18:15.605Z,24.7
2017-07-27T14:19:23.442Z,24.5
2017-07-27T14:20:30.272Z,24.6
2017-07-27T14:21:37.442Z,24.5
2017-07-27T14:22:44.931Z,24.6
2017-07-27T14:23:52.415Z,24.9
2017-07-27T14:24:59.906Z,24.9
2017-07-27T14:26:07.072Z,24.7
2017-07-27T14:27:14.232Z,24.7
2017-07-27T14:28:21.640Z,24.8
2017-07-27T14:29:29.132Z,24.9
2017-07-27T14:30:36.620Z,24.7
2017-07-27T14:31:44.119Z,24.6
2017-07-27T14:32:51.285Z,24.5
2017-07-27T14:33:59.022Z,24.2
2017-07-27T14:35:21.097Z,24
2017-07-27T14:36:28.585Z,24.1
2017-07-27T14:37:35.746Z,24.1
2017-07-27T14:38:43.233Z,24
2017-07-27T14:39:50.391Z,24
2017-07-27T14:40:57.876Z,24.1
2017-07-27T14:42:05.025Z,24.1
2017-07-27T14:43:12.509Z,24.1
2017-07-27T14:44:19.995Z,23.8
2017-07-27T14:45:27.259Z,23.7
2017-07-27T14:46:34.749Z,23.7
2017-07-27T14:47:41.926Z,23.9
2017-07-27T14:48:49.422Z,23.9
2017-07-27T14:49:56.916Z,23.9
2017-07-27T14:51:04.324Z,23.8
2017-07-27T14:52:11.818Z,23.7
2017-07-27T14:53:19.298Z,23.8
2017-07-27T14:54:26.784Z,23.8
2017-07-27T14:55:33.955Z,23.8
2017-07-27T14:56:41.699Z,23.7
2017-07-27T14:57:48.855Z,23.5
2017-07-27T14:58:56.362Z,23.5
2017-07-27T15:00:03.851Z,23.6
2017-07-27T15:01:11.339Z,23.7
2017-07-27T15:02:18.867Z,23.8
2017-07-27T15:03:26.360Z,23.7
2017-07-27T15:04:33.850Z,23.7
2017-07-27T15:05:41.339Z,23.8